METAR Data
IDs: Format: Raw Decoded Include TAF

Data at: 1635 UTC 19 Sep 2018

KACB 191615Z AUTO 00000KT 10SM OVC018 15/10 A3013 RMK AO2 T01450097
KACB 191555Z AUTO 22003KT 10SM OVC018 14/10 A3014 RMK AO2 T01430098
KACB 191535Z AUTO 17006KT 10SM OVC018 15/10 A3013 RMK AO2 T01450098
KACB 191515Z AUTO 18003KT 10SM OVC018 14/10 A3012 RMK AO2 T01410095
KACB 191455Z AUTO 11003KT 10SM OVC016 14/09 A3013 RMK AO2 T01370094
KACB 191435Z AUTO 00000KT 10SM OVC014 13/09 A3012 RMK AO2 T01330091
KACB 191415Z AUTO 09006KT 10SM OVC014 14/09 A3010 RMK AO2 T01350094
KACB 191355Z AUTO 08005KT 10SM OVC016 13/09 A3008 RMK AO2 T01290093
KACB 191335Z AUTO 08007KT 10SM OVC016 13/09 A3008 RMK AO2 T01280094
KACB 191315Z AUTO 06006KT 10SM OVC018 13/09 A3008 RMK AO2 T01270094
KACB 191255Z AUTO 07004KT 10SM OVC018 13/09 A3008 RMK AO2 T01250093
KACB 191235Z AUTO 06004KT 10SM OVC016 13/09 A3010 RMK AO2 T01250093
KACB 191215Z AUTO 04004KT 10SM OVC016 12/09 A3010 RMK AO2 T01210094
KACB 191155Z AUTO 06003KT 10SM OVC016 12/10 A3010 RMK AO2 T01220095 10132 20121
KACB 191135Z AUTO 02003KT 10SM OVC014 12/10 A3011 RMK AO2 T01210096
KACB 191115Z AUTO 04005KT 10SM OVC014 12/10 A3010 RMK AO2 T01210097
KACB 191055Z AUTO 02003KT 10SM OVC014 12/10 A3011 RMK AO2 T01220097
KACB 191035Z AUTO 04003KT 10SM OVC014 12/10 A3009 RMK AO2 T01220097
KACB 191015Z AUTO 00000KT 10SM OVC014 12/10 A3009 RMK AO2 T01240096
KACB 190955Z AUTO 00000KT 10SM OVC014 13/10 A3008 RMK AO2 T01250095
KACB 190935Z AUTO 00000KT 10SM OVC014 13/10 A3006 RMK AO2 T01250095
KACB 190915Z AUTO 02003KT 10SM OVC014 13/10 A3007 RMK AO2 T01250095
KACB 190855Z AUTO 05006KT 10SM OVC016 13/10 A3006 RMK AO2 T01270095
KACB 190835Z AUTO 03004KT 10SM OVC016 13/10 A3005 RMK AO2 T01270098
KACB 190815Z AUTO 00000KT 10SM OVC016 13/10 A3005 RMK AO2 T01270097
KACB 190755Z AUTO 35004KT 10SM OVC016 13/10 A3006 RMK AO2 T01270096
KACB 190735Z AUTO 00000KT 10SM OVC016 13/10 A3006 RMK AO2 T01270096
KACB 190715Z AUTO 01004KT 10SM OVC016 13/10 A3005 RMK AO2 T01290097
KACB 190655Z AUTO 32003KT 10SM OVC016 13/10 A3005 RMK AO2 T01300097
KACB 190635Z AUTO 36003KT 10SM OVC016 13/10 A3005 RMK AO2 T01300096
KACB 190615Z AUTO 32004KT 10SM OVC016 13/10 A3006 RMK AO2 T01310096
KACB 190555Z AUTO 01003KT 10SM OVC018 13/10 A3005 RMK AO2 T01320100 10158 20132 402000129
KACB 190535Z AUTO 01004KT 10SM OVC018 13/10 A3005 RMK AO2 T01330100
KACB 190515Z AUTO 01004KT 10SM OVC018 14/10 A3005 RMK AO2 T01350100
KACB 190455Z AUTO 35005KT 10SM OVC018 14/10 A3005 RMK AO2 T01400104
KACB 190435Z AUTO 01004KT 10SM OVC020 14/11 A3004 RMK AO2 T01440110
KACB 190415Z AUTO 33004KT 10SM OVC020 15/11 A3004 RMK AO2 T01470109
KACB 190355Z AUTO 35003KT 10SM OVC020 15/11 A3004 RMK AO2 T01500113
KACB 190335Z AUTO 36005KT 10SM OVC022 15/12 A3003 RMK AO2 T01520115
KACB 190315Z AUTO 00000KT 10SM OVC022 15/12 A3002 RMK AO2 T01540120
KACB 190255Z AUTO 02004KT 10SM OVC022 15/12 A3002 RMK AO2 T01540120
KACB 190235Z AUTO 01003KT 10SM OVC022 15/12 A3001 RMK AO2 T01500122
KACB 190215Z AUTO 00000KT 10SM OVC022 15/12 A3001 RMK AO2 T01540123
KACB 190155Z AUTO 00000KT 10SM OVC022 15/12 A3001 RMK AO2 T01530123
KACB 190135Z AUTO 00000KT 10SM OVC020 15/12 A3000 RMK AO2 T01530121
KACB 190115Z AUTO 00000KT 10SM OVC020 15/12 A3000 RMK AO2 T01490124
KACB 190055Z AUTO 00000KT 10SM OVC020 15/12 A2999 RMK AO2 T01500121
KACB 190035Z AUTO 00000KT 10SM BKN020 15/12 A2998 RMK AO2 T01520120
KACB 190015Z AUTO 02004KT 10SM BKN022 15/12 A2998 RMK AO2 T01510120
KACB 182355Z AUTO 02004KT 10SM OVC022 16/12 A2998 RMK AO2 T01580122 10193 20158
KACB 182335Z AUTO 00000KT 10SM OVC022 16/13 A2998 RMK AO2 T01580125
KACB 182315Z AUTO 00000KT 10SM OVC022 16/12 A2997 RMK AO2 T01620124
KACB 182255Z AUTO 00000KT 10SM BKN022 17/13 A2998 RMK AO2 T01690125
KACB 182235Z AUTO 00000KT 10SM BKN022 17/13 A2997 RMK AO2 T01680125
KACB 182215Z AUTO 31003KT 10SM BKN022 17/12 A2998 RMK AO2 T01720124
KACB 182155Z AUTO 00000KT 10SM OVC020 18/13 A2998 RMK AO2 T01800126
KACB 182135Z AUTO 00000KT 10SM OVC020 17/13 A2997 RMK AO2 T01730125
KACB 182115Z AUTO 34003KT 10SM BKN023 OVC080 17/13 A2998 RMK AO2 T01740126
KACB 182055Z AUTO 31004KT 10SM OVC023 18/13 A2999 RMK AO2 T01760127
KACB 182035Z AUTO 29005KT 10SM BKN023 18/13 A2998 RMK AO2 T01760129
KACB 182015Z AUTO 29005KT 260V320 10SM BKN023 18/13 A2998 RMK AO2 T01830132
KACB 181955Z AUTO 28004KT 10SM SCT021 19/13 A2996 RMK AO2 T01890133
KACB 181935Z AUTO 00000KT 10SM BKN021 BKN080 19/13 A2996 RMK AO2 T01860131
KACB 181915Z AUTO 00000KT 10SM SCT021 SCT080 19/13 A2996 RMK AO2 T01900133
KACB 181855Z AUTO 34003KT 10SM CLR 19/13 A2996 RMK AO2 T01890132
KACB 181835Z AUTO 27005KT 10SM SCT026 SCT080 SCT090 19/13 A2997 RMK AO2 T01890133
KACB 181815Z AUTO 31004KT 10SM BKN026 19/13 A2999 RMK AO2 T01890134
KACB 181755Z AUTO 29007KT 10SM OVC026 20/14 A2998 RMK AO2 T01950136 10200 20148
KACB 181735Z AUTO 29005KT 10SM OVC024 20/14 A2997 RMK AO2 T01970136
KACB 181715Z AUTO 30005KT 10SM OVC024 20/14 A2998 RMK AO2 T01980135
KACB 181655Z AUTO 01004KT 10SM BKN024 19/13 A2997 RMK AO2 T01940129
KACB 181635Z AUTO 00000KT 10SM BKN024 19/13 A2997 RMK AO2 T01910128
KACB 181615Z AUTO 06004KT 10SM BKN024 19/13 A2997 RMK AO2 T01940128
KACB 181555Z AUTO 36003KT 10SM BKN022 19/13 A2997 RMK AO2 T01860125
KACB 181535Z AUTO 00000KT 10SM OVC022 18/13 A2998 RMK AO2 T01800126
KACB 181515Z AUTO 00000KT 10SM OVC020 18/13 A2998 RMK AO2 T01760126
KACB 181455Z AUTO 00000KT 10SM OVC018 18/13 A2999 RMK AO2 T01750125
KACB 181435Z AUTO 03003KT 10SM OVC018 17/13 A2999 RMK AO2 T01700126
KACB 181415Z AUTO 01004KT 10SM OVC016 17/13 A2999 RMK AO2 T01670125
KACB 181355Z AUTO 01004KT 10SM OVC016 16/13 A2999 RMK AO2 T01640128
KACB 181335Z AUTO 00000KT 10SM OVC014 16/13 A2999 RMK AO2 T01600128
KACB 181315Z AUTO 00000KT 10SM OVC014 16/13 A2999 RMK AO2 T01570128
KACB 181255Z AUTO 00000KT 10SM OVC014 16/13 A2998 RMK AO2 T01550127
KACB 181235Z AUTO 33003KT 10SM OVC014 15/13 A2998 RMK AO2 T01510127
KACB 181215Z AUTO 00000KT 10SM OVC014 15/13 A2998 RMK AO2 T01500125
KACB 181155Z AUTO 00000KT 10SM OVC014 15/13 A2997 RMK AO2 T01480126 10167 20129
KACB 181135Z AUTO 00000KT 10SM OVC014 14/13 A2998 RMK AO2 T01430126
KACB 181115Z AUTO 00000KT 10SM OVC014 14/13 A2997 RMK AO2 T01390127
KACB 181055Z AUTO 00000KT 10SM OVC016 14/12 A2997 RMK AO2 T01350122
KACB 181035Z AUTO 00000KT 10SM OVC016 14/12 A2997 RMK AO2 T01380124
KACB 181015Z AUTO 00000KT 10SM OVC016 14/12 A2996 RMK AO2 T01350122
KACB 180955Z AUTO 00000KT 10SM OVC016 13/12 A2996 RMK AO2 T01310121
KACB 180935Z AUTO 00000KT 10SM BKN014 OVC019 13/12 A2996 RMK AO2 T01330122
KACB 180915Z AUTO 00000KT 10SM SCT013 SCT020 13/12 A2996 RMK AO2 T01310118
KACB 180855Z AUTO 00000KT 10SM CLR 14/12 A2996 RMK AO2 T01370118
KACB 180835Z AUTO 00000KT 10SM CLR 15/12 A2995 RMK AO2 T01500123
KACB 180815Z AUTO 00000KT 10SM CLR 15/12 A2995 RMK AO2 T01510122
KACB 180755Z AUTO 02003KT 10SM SCT120 15/12 A2995 RMK AO2 T01530121
KACB 180735Z AUTO 00000KT 10SM SCT120 16/12 A2995 RMK AO2 T01550121
KACB 180715Z AUTO 00000KT 10SM SCT120 16/12 A2996 RMK AO2 T01570121
KACB 180655Z AUTO 00000KT 10SM CLR 16/12 A2997 RMK AO2 T01600121
KACB 180635Z AUTO 00000KT 10SM CLR 16/12 A2997 RMK AO2 T01620120
KACB 180615Z AUTO 03004KT 10SM SCT029 16/12 A2994 RMK AO2 T01620120
KACB 180555Z AUTO 36004KT 10SM OVC027 17/12 A2997 RMK AO2 T01670120 10243 20167 403020155
KACB 180535Z AUTO 00000KT 10SM BKN027 OVC032 17/12 A2999 RMK AO2 T01680122
KACB 180515Z AUTO 00000KT 10SM SCT025 BKN036 17/12 A2997 RMK AO2 T01700124
KACB 180455Z AUTO 30003KT 10SM SCT036 17/12 A2997 RMK AO2 T01680120